Terminal Aerodrome Forecast
Issued by NWS Memphis, TN

Home | Current Version | Previous Version | Text Only | Print | Product List | Glossary On
Versions: 1 2 3 4 5 6 7 8 9 10 11 12 13 14 15 16 17 18
000
FTUS44 KMEG 012300
TAFJBR
TAF
KJBR 012330Z 0200/0224 03003KT P6SM SCT050
      TEMPO 0209/0212 5SM BR
     FM021300 05005KT P6SM FEW050
     FM022000 08008KT P6SM BKN060=

USA.gov is the U.S. government's official web portal to all federal, state and local government web resources and services.